createdAt,value
2018-07-20T00:02:01.742Z,62.10
2018-07-20T00:04:29.798Z,63.10
2018-07-20T00:06:57.908Z,62.50
2018-07-20T00:09:25.957Z,62.40
2018-07-20T00:11:54.022Z,62.90
2018-07-20T00:14:22.675Z,62.90
2018-07-20T00:16:50.747Z,62.90
2018-07-20T00:19:18.816Z,63.00
2018-07-20T00:21:46.867Z,63.60
2018-07-20T00:24:14.919Z,63.70
2018-07-20T00:26:43.057Z,63.90
2018-07-20T00:29:11.130Z,64.10
2018-07-20T00:31:39.210Z,64.10
2018-07-20T00:34:07.282Z,64.10
2018-07-20T00:36:35.379Z,64.50
2018-07-20T00:39:03.727Z,64.30
2018-07-20T00:41:31.861Z,64.50
2018-07-20T00:43:59.880Z,65.10
2018-07-20T00:46:27.946Z,65.50
2018-07-20T00:48:56.083Z,65.30
2018-07-20T00:51:24.154Z,65.90
2018-07-20T00:53:52.225Z,65.70
2018-07-20T01:03:44.081Z,66.10
2018-07-20T01:06:12.151Z,66.50
2018-07-20T01:08:40.205Z,65.20
2018-07-20T01:11:08.342Z,65.40
2018-07-20T01:13:36.390Z,65.50
2018-07-20T01:16:04.544Z,65.60
2018-07-20T01:18:32.634Z,66.60
2018-07-20T01:21:00.705Z,66.60
2018-07-20T01:23:28.757Z,66.90
2018-07-20T01:25:56.855Z,67.20
2018-07-20T01:28:24.963Z,67.30
2018-07-20T01:30:53.050Z,67.30
2018-07-20T01:33:21.151Z,67.30
2018-07-20T01:35:49.235Z,67.50
2018-07-20T01:38:17.314Z,67.30
2018-07-20T01:40:45.415Z,67.40
2018-07-20T01:43:13.499Z,67.90
2018-07-20T01:45:41.578Z,67.10
2018-07-20T01:48:09.696Z,67.40
2018-07-20T01:50:37.864Z,67.50
2018-07-20T01:53:05.929Z,67.70
2018-07-20T01:55:34.072Z,68.00
2018-07-20T01:58:02.133Z,68.10
2018-07-20T02:00:30.231Z,68.20
2018-07-20T02:02:58.297Z,68.30
2018-07-20T02:05:26.361Z,68.70
2018-07-20T02:07:54.573Z,69.00
2018-07-20T02:10:22.686Z,69.20
2018-07-20T02:12:50.753Z,69.40
2018-07-20T02:15:18.815Z,69.50
2018-07-20T02:17:47.151Z,69.60
2018-07-20T02:20:15.203Z,69.90
2018-07-20T02:22:43.336Z,70.00
2018-07-20T02:25:11.407Z,70.40
2018-07-20T02:27:39.508Z,70.40
2018-07-20T02:30:07.859Z,70.60
2018-07-20T02:32:35.954Z,70.80
2018-07-20T02:35:04.024Z,70.90
2018-07-20T02:37:32.091Z,71.10
2018-07-20T02:40:00.163Z,71.30
2018-07-20T02:42:28.258Z,71.10
2018-07-20T02:44:56.380Z,71.30
2018-07-20T02:47:24.437Z,71.40
2018-07-20T02:49:52.500Z,71.90
2018-07-20T02:52:20.573Z,72.00
2018-07-20T02:54:48.670Z,72.20
2018-07-20T02:57:16.843Z,72.70
2018-07-20T02:59:44.916Z,73.00
2018-07-20T03:02:13.048Z,73.00
2018-07-20T03:04:41.181Z,73.10
2018-07-20T03:07:09.254Z,74.10
2018-07-20T03:09:37.359Z,73.80
2018-07-20T03:12:05.486Z,74.40
2018-07-20T03:14:33.567Z,74.50
2018-07-20T03:17:01.680Z,74.40
2018-07-20T03:19:29.758Z,74.50
2018-07-20T03:21:57.822Z,74.90
2018-07-20T03:24:25.974Z,75.30
2018-07-20T03:26:54.101Z,75.60
2018-07-20T03:29:22.192Z,75.60
2018-07-20T03:31:50.305Z,76.40
2018-07-20T03:34:18.414Z,76.20
2018-07-20T03:36:46.551Z,76.20
2018-07-20T03:39:14.664Z,76.70
2018-07-20T03:41:42.765Z,76.60
2018-07-20T03:44:10.902Z,76.80
2018-07-20T03:46:39.037Z,77.00
2018-07-20T03:49:07.278Z,76.70
2018-07-20T03:51:35.307Z,76.70
2018-07-20T03:54:03.367Z,76.90
2018-07-20T03:56:31.439Z,76.70
2018-07-20T03:58:59.588Z,76.80
2018-07-20T04:01:27.705Z,76.90
2018-07-20T04:03:55.818Z,76.60
2018-07-20T04:06:23.880Z,76.70
2018-07-20T04:08:51.992Z,76.90
2018-07-20T04:11:20.066Z,77.00
2018-07-20T04:13:48.158Z,76.80
2018-07-20T04:16:16.264Z,76.70
2018-07-20T04:18:44.372Z,76.60
2018-07-20T04:21:12.454Z,76.40
2018-07-20T04:23:40.560Z,76.20
2018-07-20T04:26:08.665Z,76.20
2018-07-20T04:28:36.746Z,75.90
2018-07-20T04:31:04.840Z,75.50
2018-07-20T04:33:32.919Z,75.70
2018-07-20T04:36:01.046Z,75.50
2018-07-20T04:38:29.136Z,74.00
2018-07-20T04:40:57.204Z,74.00
2018-07-20T04:43:25.322Z,73.50
2018-07-20T04:45:53.386Z,73.00
2018-07-20T04:48:21.531Z,71.80
2018-07-20T04:50:49.618Z,71.70
2018-07-20T04:53:17.735Z,71.50
2018-07-20T04:55:45.874Z,71.00
2018-07-20T04:58:14.023Z,70.80
2018-07-20T05:00:42.075Z,70.50
2018-07-20T05:03:10.148Z,70.10
2018-07-20T05:05:38.242Z,69.20
2018-07-20T05:08:06.398Z,68.30
2018-07-20T05:10:34.485Z,67.60
2018-07-20T05:13:02.606Z,67.50
2018-07-20T05:15:30.728Z,66.90
2018-07-20T05:17:58.869Z,66.50
2018-07-20T05:20:26.968Z,65.90
2018-07-20T05:22:55.043Z,64.80
2018-07-20T05:27:51.029Z,63.30
2018-07-20T05:30:19.178Z,62.50
2018-07-20T05:32:47.558Z,61.70
2018-07-20T05:35:15.649Z,60.70
2018-07-20T05:37:43.769Z,60.50
2018-07-20T05:40:11.972Z,60.00
2018-07-20T05:42:40.098Z,59.80
2018-07-20T05:45:08.428Z,59.80
2018-07-20T05:47:36.509Z,58.70
2018-07-20T05:50:05.601Z,58.20
2018-07-20T05:52:33.757Z,58.40
2018-07-20T05:55:01.860Z,57.90
2018-07-20T05:57:30.147Z,57.00
2018-07-20T05:59:58.283Z,55.80
2018-07-20T06:02:26.348Z,55.80
2018-07-20T06:04:54.454Z,55.20
2018-07-20T06:07:22.561Z,55.00
2018-07-20T06:09:50.644Z,55.10
2018-07-20T06:12:18.719Z,54.80
2018-07-20T06:14:46.782Z,54.60
2018-07-20T06:17:14.926Z,55.10
2018-07-20T06:19:43.100Z,54.80
2018-07-20T06:22:11.197Z,55.50
2018-07-20T06:24:39.328Z,54.10
2018-07-20T06:27:07.392Z,53.40
2018-07-20T06:29:35.538Z,53.60
2018-07-20T06:32:03.695Z,52.40
2018-07-20T06:34:31.775Z,52.70
2018-07-20T06:36:59.863Z,51.10
2018-07-20T06:39:27.979Z,49.80
2018-07-20T06:41:56.061Z,51.00
2018-07-20T06:44:24.188Z,51.00
2018-07-20T06:46:52.298Z,51.00
2018-07-20T06:49:20.393Z,49.30
2018-07-20T06:51:48.483Z,49.10
2018-07-20T06:54:16.570Z,48.00
2018-07-20T06:56:44.657Z,48.10
2018-07-20T06:59:12.762Z,48.90
2018-07-20T07:01:40.822Z,47.80
2018-07-20T07:04:08.895Z,47.10
2018-07-20T07:06:37.029Z,47.90
2018-07-20T07:09:07.359Z,48.90
2018-07-20T07:11:35.435Z,48.00
2018-07-20T07:14:03.569Z,48.00
2018-07-20T07:16:31.715Z,48.40
2018-07-20T07:18:59.814Z,48.20
2018-07-20T07:21:27.883Z,48.40
2018-07-20T07:26:23.862Z,47.90
2018-07-20T07:28:51.941Z,47.10
2018-07-20T07:31:20.020Z,47.50
2018-07-20T07:33:48.134Z,46.10
2018-07-20T07:36:16.265Z,45.90
2018-07-20T07:38:44.384Z,45.30
2018-07-20T07:41:12.476Z,45.90
2018-07-20T07:43:40.549Z,46.00
2018-07-20T07:46:08.737Z,45.90
2018-07-20T07:48:37.154Z,46.00
2018-07-20T07:51:05.301Z,45.10
2018-07-20T07:53:33.343Z,44.70
2018-07-20T07:58:29.395Z,44.00
2018-07-20T08:00:57.467Z,42.80
2018-07-20T08:03:25.666Z,40.80
2018-07-20T08:05:53.730Z,40.20
2018-07-20T08:08:21.798Z,39.60
2018-07-20T08:10:49.870Z,39.60
2018-07-20T08:13:18.463Z,40.00
2018-07-20T08:15:46.622Z,39.80
2018-07-20T08:18:14.700Z,39.10
2018-07-20T08:23:10.642Z,40.20
2018-07-20T08:28:06.612Z,39.50
2018-07-20T08:30:34.691Z,40.20
2018-07-20T08:33:02.780Z,40.90
2018-07-20T08:35:31.244Z,40.80
2018-07-20T08:37:59.304Z,41.20
2018-07-20T08:40:27.412Z,41.20
2018-07-20T08:42:55.470Z,40.50
2018-07-20T08:45:23.588Z,41.30
2018-07-20T08:47:51.754Z,40.30
2018-07-20T08:50:19.887Z,40.90
2018-07-20T08:52:47.980Z,39.50
2018-07-20T08:55:16.989Z,38.90
2018-07-20T08:57:45.052Z,38.40
2018-07-20T09:00:13.132Z,39.00
2018-07-20T09:02:41.218Z,39.80
2018-07-20T09:05:09.316Z,39.40
2018-07-20T09:10:05.461Z,39.00
2018-07-20T09:15:01.512Z,38.60
2018-07-20T09:17:29.642Z,38.40
2018-07-20T09:19:57.784Z,38.20
2018-07-20T09:22:25.870Z,39.00
2018-07-20T09:24:53.977Z,39.60
2018-07-20T09:27:22.052Z,40.20
2018-07-20T09:29:50.147Z,40.70
2018-07-20T09:32:18.221Z,40.40
2018-07-20T09:34:46.351Z,40.20
2018-07-20T09:37:14.507Z,39.80
2018-07-20T09:39:42.759Z,39.40
2018-07-20T09:42:10.937Z,39.90
2018-07-20T09:44:39.035Z,40.00
2018-07-20T09:47:07.158Z,39.90
2018-07-20T09:49:35.272Z,39.60
2018-07-20T09:52:03.448Z,39.10
2018-07-20T09:54:31.583Z,39.40
2018-07-20T09:56:59.946Z,39.10
2018-07-20T09:59:28.089Z,38.80
2018-07-20T10:01:56.549Z,38.50
2018-07-20T10:04:24.911Z,37.80
2018-07-20T10:09:21.097Z,38.20
2018-07-20T10:11:49.189Z,37.50
2018-07-20T10:14:17.265Z,37.10
2018-07-20T10:16:45.408Z,36.60
2018-07-20T10:19:13.525Z,36.00
2018-07-20T10:21:41.571Z,36.40
2018-07-20T10:24:09.653Z,37.10
2018-07-20T10:26:37.781Z,37.10
2018-07-20T10:29:05.890Z,36.60
2018-07-20T10:31:33.966Z,34.80
2018-07-20T10:34:02.045Z,35.40
2018-07-20T10:36:30.134Z,35.60
2018-07-20T10:38:58.280Z,35.70
2018-07-20T10:41:26.555Z,36.10
2018-07-20T10:43:54.626Z,36.00
2018-07-20T10:46:22.710Z,35.70
2018-07-20T10:48:50.856Z,36.20
2018-07-20T10:51:18.954Z,36.20
2018-07-20T10:53:47.091Z,35.80
2018-07-20T10:56:15.167Z,35.80
2018-07-20T10:58:43.243Z,35.60
2018-07-20T11:01:11.353Z,35.50
2018-07-20T11:03:39.431Z,34.80
2018-07-20T11:06:07.558Z,35.10
2018-07-20T11:13:32.064Z,34.10
2018-07-20T11:18:28.049Z,34.10
2018-07-20T11:20:56.143Z,34.70
2018-07-20T11:23:24.257Z,34.00
2018-07-20T11:25:52.344Z,33.30
2018-07-20T11:28:20.869Z,33.90
2018-07-20T11:30:48.934Z,33.60
2018-07-20T11:33:17.037Z,32.30
2018-07-20T11:35:45.344Z,32.30
2018-07-20T11:38:13.442Z,31.90
2018-07-20T11:40:41.538Z,31.70
2018-07-20T11:43:09.637Z,32.10
2018-07-20T11:45:37.769Z,33.10
2018-07-20T11:48:05.877Z,31.70
2018-07-20T11:50:33.980Z,31.30
2018-07-20T11:53:02.160Z,31.50
2018-07-20T11:55:30.273Z,31.30
2018-07-20T11:57:58.374Z,31.30
2018-07-20T12:00:26.567Z,31.70
2018-07-20T12:02:54.661Z,31.40
2018-07-20T12:05:22.805Z,31.20
2018-07-20T12:07:51.260Z,31.10
2018-07-20T12:10:19.385Z,30.60
2018-07-20T12:12:47.471Z,30.90
2018-07-20T12:17:43.915Z,31.00
2018-07-20T12:22:39.920Z,31.50
2018-07-20T12:25:08.055Z,30.20
2018-07-20T12:27:36.327Z,30.40
2018-07-20T12:30:05.260Z,30.50
2018-07-20T12:32:33.408Z,30.20
2018-07-20T12:35:01.476Z,30.50
2018-07-20T12:37:29.546Z,30.00
2018-07-20T12:39:57.648Z,30.40
2018-07-20T12:42:25.830Z,30.40
2018-07-20T12:44:54.333Z,31.20
2018-07-20T12:47:22.423Z,31.60
2018-07-20T12:49:50.594Z,31.90
2018-07-20T12:52:18.688Z,31.40
2018-07-20T12:54:46.722Z,31.80
2018-07-20T12:57:14.791Z,31.10
2018-07-20T12:59:43.268Z,30.30
2018-07-20T13:02:11.579Z,30.20
2018-07-20T13:04:40.113Z,30.50
2018-07-20T13:07:08.492Z,30.10
2018-07-20T13:09:36.961Z,30.40
2018-07-20T13:12:05.612Z,31.40
2018-07-20T13:19:30.839Z,32.80
2018-07-20T13:21:59.433Z,33.10
2018-07-20T13:24:27.836Z,33.00
2018-07-20T13:26:56.285Z,32.00
2018-07-20T13:29:24.426Z,31.90
2018-07-20T13:31:52.563Z,32.30
2018-07-20T13:34:20.656Z,32.00
2018-07-20T13:36:48.755Z,33.40
2018-07-20T13:39:16.916Z,32.70
2018-07-20T13:41:44.974Z,32.70
2018-07-20T13:44:13.116Z,32.30
2018-07-20T13:46:41.194Z,32.70
2018-07-20T13:49:09.282Z,33.10
2018-07-20T13:51:37.367Z,33.60
2018-07-20T13:54:05.938Z,33.90
2018-07-20T13:56:34.296Z,33.70
2018-07-20T13:59:02.351Z,34.00
2018-07-20T14:01:30.454Z,33.80
2018-07-20T14:03:58.664Z,33.00
2018-07-20T14:06:26.987Z,32.90
2018-07-20T14:08:55.100Z,33.40
2018-07-20T14:11:23.249Z,32.80
2018-07-20T14:13:51.576Z,32.50
2018-07-20T14:16:19.682Z,32.50
2018-07-20T14:18:47.865Z,32.00
2018-07-20T14:21:16.675Z,31.90
2018-07-20T14:23:44.869Z,31.80
2018-07-20T14:26:13.005Z,32.10
2018-07-20T14:28:41.106Z,32.20
2018-07-20T14:31:09.191Z,31.10
2018-07-20T14:33:37.371Z,31.10
2018-07-20T14:36:05.663Z,31.30
2018-07-20T14:38:33.771Z,32.50
2018-07-20T14:41:01.855Z,31.80
2018-07-20T14:43:29.959Z,32.10
2018-07-20T14:45:58.104Z,32.80
2018-07-20T14:48:26.338Z,32.10
2018-07-20T14:50:54.486Z,31.70
2018-07-20T14:53:22.650Z,30.50
2018-07-20T14:55:50.824Z,30.30
2018-07-20T14:58:19.056Z,30.60
2018-07-20T15:00:47.167Z,31.30
2018-07-20T15:03:15.277Z,31.20
2018-07-20T15:05:43.364Z,31.50
2018-07-20T15:08:11.415Z,31.20
2018-07-20T15:10:39.522Z,30.80
2018-07-20T15:13:07.656Z,30.60
2018-07-20T15:18:03.681Z,32.00
2018-07-20T15:20:31.840Z,30.90
2018-07-20T15:22:59.905Z,31.80
2018-07-20T15:25:28.041Z,31.30
2018-07-20T15:27:56.091Z,31.30
2018-07-20T15:30:24.189Z,30.80
2018-07-20T15:32:52.268Z,31.70
2018-07-20T15:35:20.362Z,31.50
2018-07-20T15:37:48.495Z,31.70
2018-07-20T15:42:44.554Z,31.80
2018-07-20T15:45:13.578Z,31.50
2018-07-20T15:47:41.664Z,31.70
2018-07-20T15:50:09.775Z,32.30
2018-07-20T15:55:06.081Z,32.10
2018-07-20T15:57:34.370Z,32.10
2018-07-20T16:00:02.566Z,32.00
2018-07-20T16:02:30.547Z,31.50
2018-07-20T16:04:58.656Z,32.70
2018-07-20T16:07:26.737Z,32.40
2018-07-20T16:09:54.823Z,32.00
2018-07-20T16:12:22.916Z,32.20
2018-07-20T16:14:51.000Z,32.00
2018-07-20T16:17:19.061Z,32.30
2018-07-20T16:19:47.153Z,31.50
2018-07-20T16:22:15.347Z,32.00
2018-07-20T16:27:11.662Z,32.50
2018-07-20T16:29:39.780Z,32.30
2018-07-20T16:32:08.017Z,32.50
2018-07-20T16:34:36.211Z,32.30
2018-07-20T16:37:04.306Z,32.10
2018-07-20T16:39:32.441Z,32.30
2018-07-20T16:42:00.595Z,31.80
2018-07-20T16:44:29.010Z,31.60
2018-07-20T16:46:57.164Z,32.00
2018-07-20T16:49:25.622Z,32.50
2018-07-20T16:51:53.692Z,32.70
2018-07-20T16:54:22.607Z,32.50
2018-07-20T16:56:50.730Z,32.50
2018-07-20T16:59:18.896Z,32.50
2018-07-20T17:01:47.013Z,32.80
2018-07-20T17:04:15.074Z,32.40
2018-07-20T17:06:43.190Z,32.40
2018-07-20T17:09:12.765Z,32.60
2018-07-20T17:11:41.231Z,32.40
2018-07-20T17:14:09.399Z,32.90
2018-07-20T17:19:05.974Z,32.70
2018-07-20T17:21:35.268Z,33.10
2018-07-20T17:24:03.329Z,32.90
2018-07-20T17:26:31.429Z,32.90
2018-07-20T17:28:59.515Z,33.10
2018-07-20T17:31:27.662Z,33.50
2018-07-20T17:33:55.856Z,33.60
2018-07-20T17:36:23.980Z,33.30
2018-07-20T17:38:52.093Z,33.50
2018-07-20T17:41:20.242Z,33.80
2018-07-20T17:43:48.336Z,33.90
2018-07-20T17:46:16.449Z,34.10
2018-07-20T17:48:44.617Z,34.30
2018-07-20T17:51:12.823Z,34.80
2018-07-20T17:53:41.731Z,34.70
2018-07-20T17:56:09.835Z,34.90
2018-07-20T17:58:37.906Z,35.10
2018-07-20T18:01:06.172Z,35.30
2018-07-20T18:03:34.232Z,35.70
2018-07-20T18:06:02.372Z,35.80
2018-07-20T18:08:30.457Z,36.00
2018-07-20T18:10:58.546Z,36.80
2018-07-20T18:13:26.662Z,36.30
2018-07-20T18:15:54.773Z,36.50
2018-07-20T18:18:22.858Z,36.40
2018-07-20T18:20:50.933Z,36.80
2018-07-20T18:23:19.027Z,36.90
2018-07-20T18:25:47.117Z,36.90
2018-07-20T18:28:15.248Z,36.60
2018-07-20T18:30:43.400Z,36.50
2018-07-20T18:33:11.583Z,36.80
2018-07-20T18:35:39.665Z,36.60
2018-07-20T18:38:07.780Z,37.00
2018-07-20T18:40:35.917Z,37.20
2018-07-20T18:43:04.021Z,37.50
2018-07-20T18:45:32.114Z,37.50
2018-07-20T18:48:00.225Z,37.20
2018-07-20T18:50:28.581Z,37.40
2018-07-20T18:52:56.725Z,37.30
2018-07-20T18:55:24.764Z,37.20
2018-07-20T18:57:52.842Z,37.30
2018-07-20T19:00:20.976Z,37.40
2018-07-20T19:02:49.058Z,37.50
2018-07-20T19:05:17.203Z,38.10
2018-07-20T19:07:45.225Z,37.70
2018-07-20T19:10:13.392Z,37.80
2018-07-20T19:12:41.511Z,37.90
2018-07-20T19:15:09.604Z,38.10
2018-07-20T19:17:37.719Z,38.30
2018-07-20T19:20:05.830Z,38.50
2018-07-20T19:22:33.963Z,38.80
2018-07-20T19:25:02.045Z,38.90
2018-07-20T19:27:30.145Z,39.00
2018-07-20T19:29:58.216Z,39.20
2018-07-20T19:32:26.461Z,39.30
2018-07-20T19:34:54.556Z,39.60
2018-07-20T19:37:22.722Z,39.80
2018-07-20T19:39:50.819Z,40.00
2018-07-20T19:42:18.927Z,40.10
2018-07-20T19:44:47.069Z,40.20
2018-07-20T19:47:15.274Z,40.50
2018-07-20T19:49:43.502Z,40.60
2018-07-20T19:52:11.593Z,40.90
2018-07-20T19:54:39.747Z,41.00
2018-07-20T19:57:07.864Z,41.20
2018-07-20T19:59:36.106Z,41.40
2018-07-20T20:02:04.197Z,41.50
2018-07-20T20:04:32.352Z,41.90
2018-07-20T20:07:00.933Z,41.90
2018-07-20T20:09:35.695Z,42.90
2018-07-20T20:12:04.150Z,42.50
2018-07-20T20:14:32.219Z,42.80
2018-07-20T20:17:00.351Z,43.60
2018-07-20T20:19:28.428Z,43.00
2018-07-20T20:21:56.645Z,43.00
2018-07-20T20:24:24.687Z,42.90
2018-07-20T20:26:52.759Z,42.30
2018-07-20T20:29:20.911Z,42.80
2018-07-20T20:31:48.995Z,43.00
2018-07-20T20:34:17.084Z,43.10
2018-07-20T20:36:45.165Z,43.40
2018-07-20T20:39:13.516Z,44.00
2018-07-20T20:41:41.762Z,44.60
2018-07-20T20:44:10.275Z,44.80
2018-07-20T20:46:38.912Z,44.80
2018-07-20T20:49:07.042Z,44.50
2018-07-20T20:51:35.163Z,44.30
2018-07-20T20:54:03.303Z,44.20
2018-07-20T20:56:31.470Z,43.80
2018-07-20T20:58:59.622Z,44.50
2018-07-20T21:01:27.719Z,44.80
2018-07-20T21:03:55.807Z,44.80
2018-07-20T21:06:23.894Z,44.90
2018-07-20T21:08:51.959Z,44.90
2018-07-20T21:11:20.029Z,44.90
2018-07-20T21:13:48.173Z,45.10
2018-07-20T21:16:16.289Z,45.10
2018-07-20T21:18:44.456Z,45.20
2018-07-20T21:21:12.522Z,45.30
2018-07-20T21:23:40.599Z,45.40
2018-07-20T21:26:08.675Z,45.60
2018-07-20T21:28:36.790Z,45.70
2018-07-20T21:31:04.846Z,45.70
2018-07-20T21:33:32.991Z,46.10
2018-07-20T21:36:01.157Z,46.30
2018-07-20T21:38:29.289Z,46.20
2018-07-20T21:40:57.404Z,46.50
2018-07-20T21:43:25.495Z,46.80
2018-07-20T21:45:53.606Z,46.90
2018-07-20T21:48:21.708Z,47.00
2018-07-20T21:50:49.836Z,47.20
2018-07-20T21:53:17.950Z,47.50
2018-07-20T21:55:46.063Z,47.50
2018-07-20T21:58:14.198Z,47.50
2018-07-20T22:00:42.317Z,47.80
2018-07-20T22:03:10.408Z,48.10
2018-07-20T22:05:38.487Z,48.00
2018-07-20T22:08:06.579Z,48.40
2018-07-20T22:10:34.630Z,48.50
2018-07-20T22:13:02.704Z,48.50
2018-07-20T22:15:30.770Z,48.40
2018-07-20T22:17:58.843Z,49.30
2018-07-20T22:20:26.965Z,48.60
2018-07-20T22:22:55.081Z,48.50
2018-07-20T22:25:23.144Z,48.60
2018-07-20T22:27:51.216Z,48.70
2018-07-20T22:30:19.291Z,48.70
2018-07-20T22:32:47.402Z,48.80
2018-07-20T22:35:15.494Z,48.80
2018-07-20T22:37:43.564Z,49.10
2018-07-20T22:40:11.639Z,49.20
2018-07-20T22:42:39.714Z,49.40
2018-07-20T22:45:07.802Z,49.60
2018-07-20T22:47:35.884Z,49.70
2018-07-20T22:50:04.582Z,49.90
2018-07-20T22:52:32.650Z,50.10
2018-07-20T22:55:00.754Z,50.30
2018-07-20T22:57:28.849Z,50.60
2018-07-20T22:59:56.959Z,51.40
2018-07-20T23:02:25.070Z,51.10
2018-07-20T23:04:53.129Z,51.30
2018-07-20T23:07:21.378Z,51.70
2018-07-20T23:09:49.528Z,52.00
2018-07-20T23:12:17.608Z,52.60
2018-07-20T23:14:45.725Z,52.80
2018-07-20T23:17:13.862Z,52.90
2018-07-20T23:19:41.966Z,52.90
2018-07-20T23:22:10.033Z,52.90
2018-07-20T23:24:38.152Z,53.10
2018-07-20T23:27:06.258Z,53.30
2018-07-20T23:29:34.416Z,53.50
2018-07-20T23:32:02.471Z,53.70
2018-07-20T23:34:30.589Z,54.10
2018-07-20T23:36:58.744Z,54.10
2018-07-20T23:39:26.815Z,54.40
2018-07-20T23:41:54.884Z,54.60
2018-07-20T23:44:22.963Z,54.80
2018-07-20T23:46:51.087Z,54.90
2018-07-20T23:51:53.619Z,55.40
2018-07-20T23:54:21.718Z,55.70
2018-07-20T23:56:49.796Z,56.10
2018-07-20T23:59:17.910Z,56.10
